createdAt,value
2018-08-07T04:37:36.727Z,78.10
2018-08-07T04:40:09.335Z,77.20
2018-08-07T04:42:41.675Z,76.70
2018-08-07T04:45:14.073Z,76.30
2018-08-07T04:47:46.423Z,75.70
2018-08-07T04:50:18.787Z,75.10
2018-08-07T04:52:51.084Z,75.50
2018-08-07T04:55:23.405Z,75.50
2018-08-07T04:57:55.781Z,74.40
2018-08-07T05:00:28.443Z,73.80
2018-08-07T05:03:00.783Z,72.90
2018-08-07T05:05:33.092Z,72.40
2018-08-07T05:08:05.416Z,70.80
2018-08-07T05:10:37.735Z,68.60
2018-08-07T05:13:10.040Z,66.60
2018-08-07T05:15:42.354Z,64.00
2018-08-07T05:18:14.656Z,61.90
2018-08-07T05:20:47.366Z,59.10
2018-08-07T05:23:19.655Z,58.10
2018-08-07T05:25:52.035Z,55.90
2018-08-07T05:28:24.343Z,54.80
2018-08-07T05:30:56.655Z,53.70
2018-08-07T05:33:29.251Z,52.50
2018-08-07T05:36:01.579Z,50.50
2018-08-07T05:38:33.872Z,50.00
2018-08-07T05:41:06.551Z,49.80
2018-08-07T05:43:38.869Z,49.10
2018-08-07T05:46:11.191Z,48.20
2018-08-07T05:48:43.503Z,47.30
2018-08-07T05:51:16.445Z,46.40
2018-08-07T05:53:48.495Z,45.30
2018-08-07T05:56:20.812Z,45.60
2018-08-07T05:58:53.202Z,46.00
2018-08-07T06:01:25.456Z,44.80
2018-08-07T06:03:57.754Z,44.60
2018-08-07T06:06:30.103Z,44.10
2018-08-07T06:09:02.684Z,43.70
2018-08-07T06:11:35.014Z,41.90
2018-08-07T06:14:07.328Z,42.00
2018-08-07T06:16:39.644Z,41.30
2018-08-07T06:19:11.995Z,40.80
2018-08-07T06:21:44.272Z,40.20
2018-08-07T06:24:16.583Z,40.30
2018-08-07T06:26:50.960Z,38.40
2018-08-07T06:29:23.263Z,38.90
2018-08-07T06:31:55.591Z,38.80
2018-08-07T06:34:27.950Z,38.30
2018-08-07T06:37:00.284Z,38.30
2018-08-07T06:39:32.594Z,37.40
2018-08-07T06:42:05.428Z,37.60
2018-08-07T06:44:37.735Z,36.80
2018-08-07T06:47:10.356Z,36.00
2018-08-07T06:49:42.660Z,37.00
2018-08-07T06:52:15.207Z,36.00
2018-08-07T06:54:47.512Z,36.70
2018-08-07T06:57:19.846Z,36.80
2018-08-07T07:02:24.683Z,36.50
2018-08-07T07:04:56.980Z,36.80
2018-08-07T07:07:29.303Z,36.90
2018-08-07T07:10:01.830Z,36.40
2018-08-07T07:15:07.677Z,36.10
2018-08-07T07:17:40.011Z,35.90
2018-08-07T07:20:13.243Z,35.70
2018-08-07T07:22:46.538Z,35.70
2018-08-07T07:25:18.835Z,35.70
2018-08-07T07:27:51.167Z,35.80
2018-08-07T07:30:23.471Z,36.30
2018-08-07T07:32:55.815Z,35.30
2018-08-07T07:35:28.103Z,35.20
2018-08-07T07:38:00.449Z,35.30
2018-08-07T07:40:32.803Z,35.00
2018-08-07T07:45:37.239Z,33.30
2018-08-07T07:48:09.552Z,33.60
2018-08-07T07:50:41.875Z,34.70
2018-08-07T07:53:14.450Z,34.40
2018-08-07T07:55:46.755Z,34.20
2018-08-07T07:58:19.136Z,34.30
2018-08-07T08:00:51.392Z,33.60
2018-08-07T08:03:23.771Z,33.40
2018-08-07T08:05:56.363Z,33.30
2018-08-07T08:08:28.849Z,33.70
2018-08-07T08:11:01.172Z,33.90
2018-08-07T08:13:33.764Z,33.60
2018-08-07T08:16:06.433Z,33.60
2018-08-07T08:18:39.007Z,33.90
2018-08-07T08:21:11.311Z,34.20
2018-08-07T08:23:43.627Z,33.80
2018-08-07T08:26:15.920Z,33.90
2018-08-07T08:28:48.223Z,34.10
2018-08-07T08:31:20.566Z,34.70
2018-08-07T08:36:25.712Z,35.80
2018-08-07T08:38:58.335Z,35.80
2018-08-07T08:41:30.629Z,35.60
2018-08-07T08:44:02.980Z,35.70
2018-08-07T08:46:35.304Z,35.70
2018-08-07T08:49:07.884Z,35.60
2018-08-07T08:51:40.184Z,36.10
2018-08-07T08:54:12.516Z,35.60
2018-08-07T08:56:44.811Z,34.40
2018-08-07T08:59:17.219Z,35.50
2018-08-07T09:01:49.512Z,34.40
2018-08-07T09:04:21.835Z,34.70
2018-08-07T09:06:54.131Z,33.30
2018-08-07T09:09:26.444Z,33.10
2018-08-07T09:11:58.759Z,32.50
2018-08-07T09:14:31.292Z,31.90
2018-08-07T09:17:04.484Z,32.00
2018-08-07T09:22:09.039Z,32.10
2018-08-07T09:24:41.367Z,31.60
2018-08-07T09:27:13.660Z,31.70
2018-08-07T09:29:46.237Z,31.00
2018-08-07T09:32:18.538Z,30.30
2018-08-07T09:34:50.839Z,30.00
2018-08-07T09:37:23.149Z,30.40
2018-08-07T09:39:55.508Z,30.20
2018-08-07T09:42:27.755Z,30.30
2018-08-07T09:45:00.076Z,29.90
2018-08-07T09:47:32.367Z,30.40
2018-08-07T09:50:04.992Z,30.60
2018-08-07T09:52:37.291Z,29.10
2018-08-07T09:55:09.603Z,29.10
2018-08-07T09:57:41.889Z,29.10
2018-08-07T10:00:17.076Z,28.50
2018-08-07T10:02:50.240Z,28.70
2018-08-07T10:05:22.630Z,28.80
2018-08-07T10:07:54.835Z,28.00
2018-08-07T10:10:27.468Z,28.80
2018-08-07T10:13:00.037Z,28.90
2018-08-07T10:15:32.351Z,29.30
2018-08-07T10:18:04.885Z,28.70
2018-08-07T10:20:37.256Z,28.30
2018-08-07T10:23:09.558Z,28.50
2018-08-07T10:25:41.856Z,28.30
2018-08-07T10:28:14.167Z,28.40
2018-08-07T10:30:46.467Z,28.40
2018-08-07T10:33:18.760Z,28.70
2018-08-07T10:35:51.064Z,27.90
2018-08-07T10:38:23.755Z,28.00
2018-08-07T10:40:56.110Z,28.00
2018-08-07T10:43:28.404Z,27.70
2018-08-07T10:46:00.643Z,27.70
2018-08-07T10:48:32.942Z,27.50
2018-08-07T10:51:05.339Z,27.60
2018-08-07T10:53:37.630Z,27.40
2018-08-07T10:56:10.255Z,27.10
2018-08-07T10:58:42.541Z,26.00
2018-08-07T11:01:14.866Z,26.60
2018-08-07T11:03:47.152Z,26.60
2018-08-07T11:06:19.737Z,27.00
2018-08-07T11:08:52.039Z,27.70
2018-08-07T11:11:24.352Z,28.20
2018-08-07T11:13:56.636Z,28.50
2018-08-07T11:16:28.944Z,28.70
2018-08-07T11:19:01.240Z,28.60
2018-08-07T11:21:33.570Z,28.70
2018-08-07T11:24:05.857Z,28.80
2018-08-07T11:26:38.168Z,29.00
2018-08-07T11:29:10.469Z,30.70
2018-08-07T11:31:43.047Z,29.60
2018-08-07T11:34:15.331Z,29.40
2018-08-07T11:36:47.728Z,28.50
2018-08-07T11:39:20.022Z,28.90
2018-08-07T11:41:52.333Z,28.40
2018-08-07T11:44:24.623Z,28.20
2018-08-07T11:46:57.047Z,28.50
2018-08-07T11:49:29.627Z,28.50
2018-08-07T11:52:01.944Z,28.20
2018-08-07T11:54:34.236Z,28.80
2018-08-07T11:57:06.580Z,28.50
2018-08-07T11:59:38.866Z,28.10
2018-08-07T12:02:11.175Z,28.40
2018-08-07T12:04:43.459Z,28.90
2018-08-07T12:07:15.842Z,29.10
2018-08-07T12:09:48.448Z,28.40
2018-08-07T12:12:20.780Z,29.00
2018-08-07T12:14:53.067Z,30.00
2018-08-07T12:17:25.384Z,29.60
2018-08-07T12:19:57.986Z,28.60
2018-08-07T12:22:30.591Z,29.00
2018-08-07T12:25:03.530Z,28.40
2018-08-07T12:27:35.873Z,28.50
2018-08-07T12:30:12.613Z,28.80
2018-08-07T12:32:44.961Z,28.90
2018-08-07T12:35:17.358Z,28.70
2018-08-07T12:37:49.648Z,28.30
2018-08-07T12:40:23.428Z,28.60
2018-08-07T12:42:57.964Z,28.90
2018-08-07T12:45:30.264Z,28.40
2018-08-07T12:48:02.551Z,28.80
2018-08-07T12:50:34.849Z,28.90
2018-08-07T12:53:07.700Z,28.80
2018-08-07T12:55:39.979Z,28.80
2018-08-07T12:58:12.286Z,28.90
2018-08-07T13:00:44.862Z,29.80
2018-08-07T13:03:17.147Z,29.30
2018-08-07T13:05:49.479Z,29.40
2018-08-07T13:08:21.805Z,28.80
2018-08-07T13:10:54.091Z,29.00
2018-08-07T13:13:26.428Z,29.00
2018-08-07T13:15:58.727Z,29.60
2018-08-07T13:18:31.379Z,29.30
2018-08-07T13:21:03.676Z,29.20
2018-08-07T13:23:36.004Z,29.60
2018-08-07T13:26:08.374Z,29.50
2018-08-07T13:28:40.671Z,29.60
2018-08-07T13:31:13.004Z,29.80
2018-08-07T13:33:45.344Z,29.20
2018-08-07T13:36:17.944Z,29.40
2018-08-07T13:38:50.236Z,29.20
2018-08-07T13:41:22.520Z,28.90
2018-08-07T13:43:55.082Z,29.00
2018-08-07T13:46:27.662Z,28.90
2018-08-07T13:48:59.960Z,29.90
2018-08-07T13:51:32.248Z,29.30
2018-08-07T13:54:04.691Z,29.30
2018-08-07T13:56:37.016Z,29.60
2018-08-07T13:59:09.617Z,29.20
2018-08-07T14:01:41.909Z,29.10
2018-08-07T14:04:14.540Z,29.80
2018-08-07T14:06:46.883Z,28.80
2018-08-07T14:09:19.196Z,28.00
2018-08-07T14:11:51.480Z,27.60
2018-08-07T14:14:23.795Z,27.30
2018-08-07T14:16:56.075Z,26.90
2018-08-07T14:19:28.492Z,27.00
2018-08-07T14:22:00.772Z,27.70
2018-08-07T14:24:33.087Z,27.10
2018-08-07T14:27:05.416Z,27.60
2018-08-07T14:29:37.728Z,26.90
2018-08-07T14:32:10.522Z,27.70
2018-08-07T14:34:42.850Z,27.90
2018-08-07T14:37:15.156Z,28.40
2018-08-07T14:39:47.478Z,28.30
2018-08-07T14:42:19.921Z,28.60
2018-08-07T14:44:52.117Z,28.70
2018-08-07T14:47:24.651Z,27.90
2018-08-07T14:49:56.964Z,27.80
2018-08-07T14:52:29.264Z,28.70
2018-08-07T14:55:01.577Z,27.70
2018-08-07T14:57:33.897Z,27.10
2018-08-07T15:00:08.486Z,27.10
2018-08-07T15:05:13.415Z,26.10
2018-08-07T15:07:45.765Z,26.40
2018-08-07T15:10:18.607Z,26.40
2018-08-07T15:12:51.196Z,26.60
2018-08-07T15:15:25.988Z,26.20
2018-08-07T15:17:58.600Z,26.50
2018-08-07T15:20:31.042Z,26.60
2018-08-07T15:23:03.368Z,26.50
2018-08-07T15:25:35.703Z,26.70
2018-08-07T15:28:08.054Z,26.60
2018-08-07T15:30:40.355Z,27.60
2018-08-07T15:33:12.679Z,26.80
2018-08-07T15:35:45.064Z,27.60
2018-08-07T15:38:17.353Z,27.30
2018-08-07T15:40:50.016Z,27.20
2018-08-07T15:43:22.317Z,27.00
2018-08-07T15:45:54.628Z,27.10
2018-08-07T15:48:27.262Z,27.30
2018-08-07T15:50:59.804Z,27.60
2018-08-07T15:53:32.421Z,27.00
2018-08-07T15:56:04.731Z,27.30
2018-08-07T15:58:37.039Z,27.30
2018-08-07T16:01:09.351Z,27.00
2018-08-07T16:03:41.652Z,28.40
2018-08-07T16:06:13.969Z,28.40
2018-08-07T16:08:46.506Z,28.50
2018-08-07T16:11:18.850Z,28.50
2018-08-07T16:13:51.132Z,28.00
2018-08-07T16:16:23.443Z,27.90
2018-08-07T16:18:55.736Z,27.90
2018-08-07T16:21:28.155Z,28.00
2018-08-07T16:24:00.892Z,27.20
2018-08-07T16:26:33.208Z,27.20
2018-08-07T16:29:05.840Z,27.30
2018-08-07T16:31:38.168Z,28.50
2018-08-07T16:34:10.481Z,28.40
2018-08-07T16:36:42.819Z,28.80
2018-08-07T16:39:15.125Z,29.00
2018-08-07T16:41:47.812Z,29.40
2018-08-07T16:44:20.126Z,29.60
2018-08-07T16:46:52.493Z,29.50
2018-08-07T16:49:24.764Z,29.90
2018-08-07T16:51:57.376Z,29.40
2018-08-07T16:54:29.672Z,29.70
2018-08-07T16:57:02.307Z,29.90
2018-08-07T16:59:34.603Z,30.00
2018-08-07T17:02:06.912Z,29.90
2018-08-07T17:04:39.208Z,30.20
2018-08-07T17:07:11.568Z,30.40
2018-08-07T17:09:43.852Z,30.40
2018-08-07T17:12:16.194Z,30.20
2018-08-07T17:14:48.491Z,30.40
2018-08-07T17:17:20.795Z,30.20
2018-08-07T17:19:53.407Z,30.00
2018-08-07T17:22:25.736Z,30.30
2018-08-07T17:24:58.052Z,30.20
2018-08-07T17:27:30.363Z,29.70
2018-08-07T17:30:04.670Z,29.70
2018-08-07T17:32:37.432Z,29.80
2018-08-07T17:35:11.696Z,29.40
2018-08-07T17:37:44.125Z,29.40
2018-08-07T17:40:18.135Z,29.60
2018-08-07T17:42:50.447Z,29.50
2018-08-07T17:45:22.763Z,29.70
2018-08-07T17:47:55.060Z,29.70
2018-08-07T17:50:27.348Z,29.50
2018-08-07T17:52:59.789Z,29.60
2018-08-07T17:55:32.063Z,29.60
2018-08-07T17:58:04.365Z,29.30
2018-08-07T18:00:36.668Z,29.40
2018-08-07T18:03:08.986Z,29.40
2018-08-07T18:05:41.270Z,29.60
2018-08-07T18:08:13.609Z,29.60
2018-08-07T18:10:45.940Z,29.90
2018-08-07T18:13:18.231Z,29.50
2018-08-07T18:15:50.540Z,29.80
2018-08-07T18:18:22.831Z,30.40
2018-08-07T18:20:55.179Z,30.10
2018-08-07T18:23:27.739Z,30.00
2018-08-07T18:26:00.051Z,30.20
2018-08-07T18:28:32.703Z,30.60
2018-08-07T18:31:04.968Z,30.30
2018-08-07T18:33:37.267Z,30.50
2018-08-07T18:36:09.594Z,31.00
2018-08-07T18:38:41.898Z,30.70
2018-08-07T18:41:14.171Z,31.00
2018-08-07T18:43:46.488Z,31.00
2018-08-07T18:46:18.786Z,31.10
2018-08-07T18:48:51.096Z,31.20
2018-08-07T18:51:23.439Z,31.50
2018-08-07T18:53:55.687Z,31.40
2018-08-07T18:56:27.971Z,31.50
2018-08-07T18:59:00.287Z,31.60
2018-08-07T19:01:32.594Z,32.20
2018-08-07T19:04:05.175Z,31.60
2018-08-07T19:06:37.456Z,31.90
2018-08-07T19:09:09.785Z,32.00
2018-08-07T19:11:42.080Z,32.20
2018-08-07T19:14:14.399Z,32.40
2018-08-07T19:16:46.699Z,32.60
2018-08-07T19:21:51.222Z,32.60
2018-08-07T19:24:23.825Z,33.10
2018-08-07T19:26:56.159Z,33.50
2018-08-07T19:29:28.784Z,33.10
2018-08-07T19:32:01.079Z,33.10
2018-08-07T19:34:33.465Z,33.30
2018-08-07T19:37:06.076Z,33.10
2018-08-07T19:39:38.413Z,33.50
2018-08-07T19:42:10.750Z,33.80
2018-08-07T19:44:43.045Z,34.10
2018-08-07T19:47:15.331Z,34.20
2018-08-07T19:49:47.624Z,34.60
2018-08-07T19:52:19.972Z,35.20
2018-08-07T19:54:52.264Z,35.00
2018-08-07T19:57:24.604Z,34.90
2018-08-07T19:59:56.907Z,35.20
2018-08-07T20:02:29.313Z,35.30
2018-08-07T20:05:01.907Z,36.10
2018-08-07T20:07:34.258Z,35.60
2018-08-07T20:10:07.972Z,35.60
2018-08-07T20:12:40.296Z,35.60
2018-08-07T20:15:22.023Z,35.50
2018-08-07T20:17:54.403Z,35.90
2018-08-07T20:20:26.724Z,36.50
2018-08-07T20:22:59.011Z,36.40
2018-08-07T20:25:31.320Z,36.70
2018-08-07T20:28:03.648Z,37.30
2018-08-07T20:30:35.960Z,37.40
2018-08-07T20:33:08.271Z,38.10
2018-08-07T20:35:40.600Z,37.90
2018-08-07T20:38:12.921Z,38.10
2018-08-07T20:40:45.226Z,38.10
2018-08-07T20:43:17.526Z,38.30
2018-08-07T20:45:49.846Z,38.50
2018-08-07T20:48:22.591Z,38.20
2018-08-07T20:50:54.940Z,38.10
2018-08-07T20:53:27.248Z,38.20
2018-08-07T20:55:59.970Z,37.90
2018-08-07T20:58:32.244Z,37.70
2018-08-07T21:01:04.584Z,37.80
2018-08-07T21:03:36.868Z,37.80
2018-08-07T21:06:09.453Z,37.80
2018-08-07T21:08:41.741Z,38.00
2018-08-07T21:11:14.055Z,38.00
2018-08-07T21:13:46.340Z,37.90
2018-08-07T21:16:18.663Z,37.70
2018-08-07T21:18:51.008Z,37.80
2018-08-07T21:21:23.304Z,37.80
2018-08-07T21:23:55.624Z,37.80
2018-08-07T21:26:28.020Z,38.10
2018-08-07T21:29:00.295Z,38.20
2018-08-07T21:31:32.851Z,38.20
2018-08-07T21:34:05.215Z,38.20
2018-08-07T21:39:09.691Z,38.30
2018-08-07T21:41:42.014Z,38.00
2018-08-07T21:44:14.546Z,38.00
2018-08-07T21:46:46.880Z,38.40
2018-08-07T21:49:19.196Z,37.90
2018-08-07T21:51:51.504Z,38.30
2018-08-07T21:54:23.799Z,38.10
2018-08-07T21:56:56.127Z,38.20
2018-08-07T21:59:28.412Z,38.30
2018-08-07T22:02:01.030Z,38.70
2018-08-07T22:04:33.397Z,39.20
2018-08-07T22:07:05.708Z,39.60
2018-08-07T22:09:38.001Z,40.10
2018-08-07T22:12:10.603Z,40.10
2018-08-07T22:14:42.920Z,39.80
2018-08-07T22:17:15.450Z,40.60
2018-08-07T22:19:47.751Z,40.60
2018-08-07T22:22:20.291Z,40.60
2018-08-07T22:24:53.386Z,40.90
2018-08-07T22:27:25.693Z,40.90
2018-08-07T22:29:58.028Z,41.20
2018-08-07T22:32:30.312Z,41.60
2018-08-07T22:35:02.612Z,41.80
2018-08-07T22:37:35.364Z,42.10
2018-08-07T22:40:08.336Z,42.60
2018-08-07T22:42:40.684Z,42.40
2018-08-07T22:45:13.068Z,42.80
2018-08-07T22:47:45.448Z,43.00
2018-08-07T22:50:18.173Z,43.00
2018-08-07T22:52:50.501Z,43.00
2018-08-07T22:55:23.077Z,43.10
2018-08-07T22:57:55.446Z,42.90
2018-08-07T23:00:27.901Z,43.50
2018-08-07T23:03:00.092Z,42.80
2018-08-07T23:05:32.432Z,43.90
2018-08-07T23:08:04.795Z,44.60
2018-08-07T23:10:37.100Z,44.50
2018-08-07T23:13:09.473Z,44.30
2018-08-07T23:15:41.760Z,45.20
2018-08-07T23:18:14.056Z,45.30
2018-08-07T23:20:46.376Z,45.70
2018-08-07T23:23:19.061Z,45.90
2018-08-07T23:25:51.343Z,45.80
2018-08-07T23:28:23.648Z,45.90
2018-08-07T23:30:55.952Z,46.10
2018-08-07T23:33:28.272Z,46.40
2018-08-07T23:36:00.576Z,46.50
2018-08-07T23:38:32.881Z,46.60
2018-08-07T23:41:05.221Z,46.90
2018-08-07T23:43:37.540Z,46.90
2018-08-07T23:46:09.831Z,46.90
2018-08-07T23:48:42.159Z,47.30
2018-08-07T23:51:14.723Z,47.30
2018-08-07T23:53:47.036Z,47.60
2018-08-07T23:56:19.349Z,47.70
2018-08-07T23:58:51.659Z,48.10
